Time;durP1;ratioP1;P1;durP2;ratioP2;P2;SDS_P1;SDS_P2;PMS_P1;PMS_P2;Temp;Humidity;BMP_temperature;BMP_pressure;BME280_temperature;BME280_humidity;BME280_pressure;Samples;Min_cycle;Max_cycle;Signal;HPM_P1;HPM_P2
2023/08/27 00:01:57;;;;;;;5.30;4.10;;;;;;;-128.00;-1.00;-1.00;105490;1254;1004181;-80
2023/08/27 00:04:24;;;;;;;11.10;7.80;;;;;;;-128.00;-1.00;-1.00;105476;1254;1004139;-80
2023/08/27 00:06:51;;;;;;;7.20;5.00;;;;;;;-128.00;-1.00;-1.00;105443;1253;1004132;-80
2023/08/27 00:09:18;;;;;;;6.70;4.10;;;;;;;-128.00;-1.00;-1.00;105508;1254;1003466;-80
2023/08/27 00:11:44;;;;;;;6.60;4.30;;;;;;;-128.00;-1.00;-1.00;105484;1253;1004950;-80
2023/08/27 00:14:11;;;;;;;7.80;3.80;;;;;;;-128.00;-1.00;-1.00;105455;1254;1003628;-80
2023/08/27 00:16:37;;;;;;;5.50;3.80;;;;;;;-128.00;-1.00;-1.00;105476;1254;1003288;-79
2023/08/27 00:19:05;;;;;;;8.40;3.90;;;;;;;-128.00;-1.00;-1.00;105477;1254;1004259;-79
2023/08/27 00:21:32;;;;;;;4.80;3.50;;;;;;;-128.00;-1.00;-1.00;105286;1253;1004134;-80
2023/08/27 00:23:58;;;;;;;6.20;4.10;;;;;;;-128.00;-1.00;-1.00;105424;1254;1004561;-80
2023/08/27 00:26:24;;;;;;;8.40;4.60;;;;;;;-128.00;-1.00;-1.00;105416;1254;1004070;-80
2023/08/27 00:28:51;;;;;;;9.00;4.50;;;;;;;-128.00;-1.00;-1.00;105398;1254;1003514;-80
2023/08/27 00:31:17;;;;;;;5.70;4.30;;;;;;;-128.00;-1.00;-1.00;105424;1253;1003804;-80
2023/08/27 00:33:44;;;;;;;5.30;3.80;;;;;;;-128.00;-1.00;-1.00;105446;1254;1004280;-80
2023/08/27 00:36:10;;;;;;;5.50;3.80;;;;;;;-128.00;-1.00;-1.00;105458;1254;1004437;-80
2023/08/27 00:38:37;;;;;;;7.50;4.40;;;;;;;-128.00;-1.00;-1.00;105395;1257;1004605;-80
2023/08/27 00:41:03;;;;;;;5.70;4.30;;;;;;;-128.00;-1.00;-1.00;105410;1254;1004233;-80
2023/08/27 00:43:30;;;;;;;11.80;7.30;;;;;;;-128.00;-1.00;-1.00;105399;1254;1004122;-80
2023/08/27 00:45:57;;;;;;;17.50;8.70;;;;;;;-128.00;-1.00;-1.00;105450;1254;1003608;-81
2023/08/27 00:49:05;;;;;;;11.50;5.50;;;;;;;18.23;100.00;97658.49;105614;1292;599624;-80
2023/08/27 00:57:20;;;;;;;10.00;5.70;;;;;;;17.98;100.00;97607.65;105654;1291;599974;-80
2023/08/27 00:59:47;;;;;;;11.50;5.50;;;;;;;18.02;100.00;97631.64;108376;1267;57759;-80
2023/08/27 01:02:15;;;;;;;6.40;4.20;;;;;;;18.02;100.00;97628.16;108299;1266;58680;-80
2023/08/27 01:04:41;;;;;;;6.80;3.60;;;;;;;18.03;100.00;97608.67;108369;1267;71048;-81
2023/08/27 01:07:13;;;;;;;7.80;4.00;;;;;;;18.06;100.00;97598.20;108373;1266;57120;-80
2023/08/27 01:09:44;;;;;;;5.30;3.70;;;;;;;18.05;100.00;97583.30;108382;1266;71945;-80
2023/08/27 01:12:23;;;;;;;6.90;3.60;;;;;;;18.03;100.00;97568.02;108374;1263;153422;-80
2023/08/27 01:14:50;;;;;;;9.50;4.60;;;;;;;18.03;100.00;97568.86;108518;1263;59494;-80
2023/08/27 01:17:17;;;;;;;4.50;3.30;;;;;;;18.02;100.00;97552.48;108421;1263;57032;-80
2023/08/27 01:19:43;;;;;;;6.10;4.10;;;;;;;18.03;100.00;97545.61;108521;1264;69306;-80
2023/08/27 01:22:10;;;;;;;6.80;4.50;;;;;;;18.02;100.00;97525.59;108413;1264;72271;-80
2023/08/27 01:24:36;;;;;;;5.70;3.90;;;;;;;17.99;100.00;97510.09;108488;1263;58032;-80
2023/08/27 01:27:05;;;;;;;8.00;4.00;;;;;;;17.98;100.00;97503.46;108482;1263;57897;-80
2023/08/27 01:29:36;;;;;;;8.50;5.10;;;;;;;17.99;100.00;97511.11;108484;1263;73387;-80
2023/08/27 01:32:28;;;;;;;5.90;4.70;;;;;;;18.02;100.00;97507.42;108516;1263;69770;-80
2023/08/27 01:34:55;;;;;;;5.90;4.60;;;;;;;18.02;100.00;97495.37;108450;1263;71438;-80
2023/08/27 01:37:22;;;;;;;7.60;5.60;;;;;;;18.02;100.00;97497.34;108500;1263;59526;-80
2023/08/27 01:40:08;;;;;;;7.30;4.70;;;;;;;18.03;100.00;97504.05;108487;1264;59924;-80
2023/08/27 01:42:37;;;;;;;7.10;4.90;;;;;;;18.04;100.00;97508.52;108504;1263;72995;-80
2023/08/27 01:45:06;;;;;;;7.90;4.70;;;;;;;18.04;100.00;97509.81;108503;1263;69771;-80
2023/08/27 01:47:32;;;;;;;;;;;;;;;18.04;100.00;97521.55;108473;1263;72111;-80
2023/08/27 01:49:59;;;;;;;8.40;4.00;;;;;;;18.02;100.00;97524.30;108491;1264;57592;-80
2023/08/27 01:52:25;;;;;;;7.20;4.60;;;;;;;18.03;100.00;97526.64;108437;1264;57475;-80
2023/08/27 01:54:52;;;;;;;6.40;4.10;;;;;;;18.04;100.00;97527.10;108490;1264;57863;-80
2023/08/27 01:57:18;;;;;;;6.70;4.20;;;;;;;18.04;100.00;97507.14;108503;1264;58098;-80
2023/08/27 01:59:45;;;;;;;5.90;4.40;;;;;;;18.03;100.00;97475.76;108476;1264;57456;-80
2023/08/27 02:02:11;;;;;;;7.10;4.90;;;;;;;18.02;100.00;97458.35;108519;1264;58146;-80
2023/08/27 02:04:38;;;;;;;5.80;4.40;;;;;;;18.02;100.00;97465.23;108481;1264;57854;-80
2023/08/27 02:07:04;;;;;;;6.80;4.60;;;;;;;18.06;100.00;97456.36;108458;1264;57414;-80
2023/08/27 02:09:31;;;;;;;14.20;9.10;;;;;;;18.07;100.00;97471.89;108523;1264;57617;-80
2023/08/27 02:11:57;;;;;;;13.00;8.20;;;;;;;18.08;100.00;97487.59;108469;1264;72277;-80
2023/08/27 02:14:24;;;;;;;9.60;7.20;;;;;;;18.11;100.00;97484.38;108496;1264;57519;-80
2023/08/27 02:16:50;;;;;;;8.50;6.90;;;;;;;18.15;100.00;97475.91;108495;1264;60160;-80
2023/08/27 02:19:17;;;;;;;8.00;6.40;;;;;;;18.19;100.00;97460.75;108495;1264;73321;-80
2023/08/27 02:21:44;;;;;;;10.10;6.30;;;;;;;18.22;100.00;97463.86;108480;1264;57482;-80
2023/08/27 02:24:10;;;;;;;8.90;6.10;;;;;;;18.29;100.00;97470.80;108480;1264;72305;-80
2023/08/27 02:26:36;;;;;;;7.50;6.70;;;;;;;18.32;100.00;97458.68;108496;1264;57989;-80
2023/08/27 02:29:03;;;;;;;7.80;6.20;;;;;;;18.34;100.00;97424.88;108497;1264;57648;-80
2023/08/27 02:31:29;;;;;;;9.50;6.00;;;;;;;18.30;100.00;97399.39;108475;1264;58102;-80
2023/08/27 02:33:57;;;;;;;9.20;6.30;;;;;;;18.30;100.00;97394.84;108458;1264;70626;-80
2023/08/27 02:36:23;;;;;;;10.90;6.80;;;;;;;18.30;100.00;97404.71;108393;1264;71370;-80
2023/08/27 02:38:50;;;;;;;8.60;7.00;;;;;;;18.29;100.00;97417.95;108492;1264;58446;-80
2023/08/27 02:41:16;;;;;;;11.30;8.20;;;;;;;18.31;100.00;97420.25;108698;1264;61095;-80
2023/08/27 02:43:43;;;;;;;10.10;7.00;;;;;;;18.32;100.00;97416.13;108479;1264;57588;-80
2023/08/27 02:46:09;;;;;;;11.20;7.70;;;;;;;18.35;100.00;97408.77;108532;1264;57707;-80
2023/08/27 02:48:36;;;;;;;11.40;9.10;;;;;;;18.37;100.00;97402.92;108455;1264;71048;-80
2023/08/27 02:51:03;;;;;;;10.30;7.90;;;;;;;18.36;100.00;97391.48;108405;1264;58425;-80
2023/08/27 02:53:29;;;;;;;8.70;6.70;;;;;;;18.35;100.00;97386.35;108602;1263;57366;-80
2023/08/27 02:55:56;;;;;;;11.90;6.90;;;;;;;18.31;100.00;97380.00;108548;1264;72185;-80
2023/08/27 02:58:23;;;;;;;12.00;6.10;;;;;;;18.30;100.00;97385.54;108541;1263;72036;-80
2023/08/27 03:00:49;;;;;;;8.90;6.70;;;;;;;18.30;100.00;97396.71;108794;1263;57504;-80
2023/08/27 03:03:16;;;;;;;9.80;6.90;;;;;;;18.27;100.00;97397.23;109137;1254;57722;-80
2023/08/27 03:05:42;;;;;;;12.10;7.40;;;;;;;18.27;100.00;97388.63;109144;1254;61145;-81
2023/08/27 03:08:09;;;;;;;14.40;10.00;;;;;;;18.29;100.00;97403.67;109132;1254;57425;-80
2023/08/27 03:10:35;;;;;;;13.30;9.00;;;;;;;18.31;100.00;97385.55;109183;1254;57691;-80
2023/08/27 03:13:02;;;;;;;11.90;8.10;;;;;;;18.35;100.00;97386.75;109115;1254;58124;-80
2023/08/27 03:15:28;;;;;;;11.60;8.00;;;;;;;18.37;100.00;97384.45;109144;1254;60491;-80
2023/08/27 03:17:55;;;;;;;8.80;7.40;;;;;;;18.38;100.00;97380.98;109146;1256;57794;-80
2023/08/27 03:20:21;;;;;;;9.30;7.60;;;;;;;18.38;100.00;97369.68;109146;1254;57869;-80
2023/08/27 03:22:48;;;;;;;9.90;7.70;;;;;;;18.38;100.00;97357.14;109144;1254;57737;-80
2023/08/27 03:25:14;;;;;;;10.80;8.10;;;;;;;18.39;100.00;97351.24;109157;1254;72838;-80
2023/08/27 03:27:41;;;;;;;12.10;8.70;;;;;;;18.38;100.00;97352.77;109134;1254;57701;-80
2023/08/27 03:30:07;;;;;;;10.70;8.20;;;;;;;18.38;100.00;97357.61;109158;1254;57791;-80
2023/08/27 03:32:35;;;;;;;10.50;8.00;;;;;;;18.38;100.00;97360.45;109157;1254;72069;-80
2023/08/27 03:35:02;;;;;;;13.10;8.10;;;;;;;18.36;100.00;97347.69;109244;1254;71962;-80
2023/08/27 03:37:29;;;;;;;11.90;8.00;;;;;;;18.35;100.00;97357.13;109341;1254;70995;-80
2023/08/27 03:39:55;;;;;;;10.40;7.30;;;;;;;18.35;100.00;97362.30;109211;1253;57549;-80
2023/08/27 03:42:21;;;;;;;8.30;7.50;;;;;;;18.32;100.00;97365.05;109171;1254;57406;-80
2023/08/27 03:44:48;;;;;;;10.80;7.90;;;;;;;18.29;100.00;97367.68;109170;1254;57918;-80
2023/08/27 03:47:16;;;;;;;12.50;8.70;;;;;;;18.26;100.00;97364.33;109121;1254;70756;-80
2023/08/27 03:49:43;;;;;;;12.50;9.70;;;;;;;18.25;100.00;97367.73;109081;1254;72850;-80
2023/08/27 03:52:09;;;;;;;15.20;9.20;;;;;;;18.24;100.00;97368.27;109138;1255;59097;-80
2023/08/27 03:54:36;;;;;;;16.30;9.50;;;;;;;18.21;100.00;97368.96;109062;1255;57777;-80
2023/08/27 03:57:03;;;;;;;10.40;9.00;;;;;;;18.18;100.00;97379.41;109013;1255;58151;-80
2023/08/27 03:59:30;;;;;;;9.80;8.60;;;;;;;18.17;100.00;97375.23;109027;1255;69977;-80
2023/08/27 04:01:57;;;;;;;9.40;7.70;;;;;;;18.15;100.00;97368.27;109008;1255;57743;-80
2023/08/27 04:04:23;;;;;;;9.80;8.60;;;;;;;18.12;100.00;97364.49;109156;1255;57536;-80
2023/08/27 04:06:50;;;;;;;12.10;8.00;;;;;;;18.10;100.00;97363.65;109072;1255;57972;-80
2023/08/27 04:09:16;;;;;;;10.70;7.90;;;;;;;18.09;100.00;97364.34;109059;1255;57887;-79
2023/08/27 04:11:43;;;;;;;10.10;7.80;;;;;;;18.07;100.00;97362.48;109053;1255;58176;-79
2023/08/27 04:14:09;;;;;;;11.90;8.20;;;;;;;18.07;100.00;97369.27;108974;1255;58043;-80
2023/08/27 04:16:35;;;;;;;10.40;8.90;;;;;;;18.06;100.00;97375.53;108995;1255;57830;-80
2023/08/27 04:19:02;;;;;;;9.00;7.10;;;;;;;18.06;100.00;97379.98;109033;1255;58050;-80
2023/08/27 04:21:29;;;;;;;10.90;8.00;;;;;;;18.03;100.00;97380.69;109017;1255;57657;-80
2023/08/27 04:23:55;;;;;;;10.50;7.50;;;;;;;18.01;100.00;97376.00;109037;1256;70544;-80
2023/08/27 04:26:22;;;;;;;11.30;8.40;;;;;;;18.00;100.00;97379.95;109016;1255;58203;-80
2023/08/27 04:28:50;;;;;;;13.00;9.70;;;;;;;18.00;100.00;97379.02;108999;1255;58159;-80
2023/08/27 04:31:16;;;;;;;12.20;9.30;;;;;;;18.01;100.00;97382.00;109014;1256;61009;-80
2023/08/27 04:33:43;;;;;;;13.00;9.30;;;;;;;17.98;100.00;97377.94;109017;1255;57768;-80
2023/08/27 04:36:09;;;;;;;10.50;7.70;;;;;;;17.93;100.00;97378.92;109041;1255;58037;-80
2023/08/27 04:38:36;;;;;;;9.50;7.50;;;;;;;17.90;100.00;97373.30;109049;1255;57433;-80
2023/08/27 04:41:02;;;;;;;12.60;7.70;;;;;;;17.91;100.00;97371.73;109013;1255;58000;-80
2023/08/27 04:43:29;;;;;;;16.00;12.10;;;;;;;17.93;100.00;97373.15;109019;1255;57980;-80
2023/08/27 04:45:55;;;;;;;10.50;8.60;;;;;;;17.96;100.00;97382.48;109006;1255;73598;-80
2023/08/27 04:48:22;;;;;;;10.40;8.00;;;;;;;17.97;100.00;97384.73;109010;1255;57585;-80
2023/08/27 04:50:48;;;;;;;13.70;8.40;;;;;;;17.97;100.00;97385.91;109013;1255;57863;-80
2023/08/27 04:53:15;;;;;;;12.40;8.10;;;;;;;17.98;100.00;97384.03;109007;1255;58098;-80
2023/08/27 04:55:42;;;;;;;10.60;9.10;;;;;;;17.97;100.00;97384.42;109044;1255;57570;-80
2023/08/27 04:58:08;;;;;;;10.50;7.80;;;;;;;17.98;100.00;97385.08;108938;1256;73905;-80
2023/08/27 05:00:35;;;;;;;9.20;7.90;;;;;;;18.01;100.00;97386.08;109032;1255;71057;-80
2023/08/27 05:03:04;;;;;;;10.80;9.50;;;;;;;18.04;100.00;97388.30;109026;1255;58266;-80
2023/08/27 05:05:31;;;;;;;13.70;7.60;;;;;;;18.06;100.00;97388.52;109007;1255;58901;-80
2023/08/27 05:07:57;;;;;;;11.60;8.50;;;;;;;18.05;100.00;97385.13;109044;1255;58502;-79
2023/08/27 05:10:23;;;;;;;13.80;8.10;;;;;;;18.04;100.00;97379.46;108905;1255;58898;-80
2023/08/27 05:12:50;;;;;;;12.60;8.70;;;;;;;18.05;100.00;97380.03;109053;1255;58289;-80
2023/08/27 05:15:20;;;;;;;16.80;10.00;;;;;;;18.09;100.00;97378.52;109014;1255;58543;-79
2023/08/27 05:17:48;;;;;;;12.40;8.90;;;;;;;18.14;100.00;97379.77;109018;1255;58235;-79
2023/08/27 05:20:15;;;;;;;9.20;7.90;;;;;;;18.21;100.00;97377.94;109027;1256;58712;-79
2023/08/27 05:22:42;;;;;;;12.30;8.80;;;;;;;18.25;100.00;97371.48;109025;1259;73339;-79
2023/08/27 05:25:09;;;;;;;10.80;8.20;;;;;;;18.33;100.00;97372.27;109002;1255;58559;-80
2023/08/27 05:27:35;;;;;;;9.80;7.90;;;;;;;18.42;100.00;97370.42;109037;1256;72572;-79
2023/08/27 05:30:02;;;;;;;14.10;7.50;;;;;;;18.49;100.00;97371.35;109016;1255;58512;-80
2023/08/27 05:32:29;;;;;;;10.00;7.10;;;;;;;18.54;100.00;97371.13;109007;1256;59040;-80
2023/08/27 05:34:55;;;;;;;11.40;7.20;;;;;;;18.59;100.00;97365.84;109036;1256;73500;-80
2023/08/27 05:37:22;;;;;;;10.70;7.30;;;;;;;18.69;100.00;97361.36;108942;1255;58968;-80
2023/08/27 05:39:49;;;;;;;10.80;7.50;;;;;;;18.73;100.00;97358.29;108944;1255;72833;-80
2023/08/27 05:42:16;;;;;;;13.40;11.10;;;;;;;18.82;100.00;97350.69;109039;1255;58202;-80
2023/08/27 05:44:43;;;;;;;10.30;8.90;;;;;;;18.91;100.00;97343.72;109022;1255;60572;-80
2023/08/27 05:47:10;;;;;;;13.10;8.70;;;;;;;18.99;100.00;97347.71;108921;1256;72438;-80
2023/08/27 05:49:36;;;;;;;10.00;8.70;;;;;;;19.08;100.00;97347.88;109022;1255;58889;-80
2023/08/27 05:52:03;;;;;;;11.80;8.50;;;;;;;19.22;100.00;97357.91;109018;1254;71674;-80
2023/08/27 05:54:29;;;;;;;19.80;11.00;;;;;;;19.41;100.00;97363.58;109114;1254;58869;-80
2023/08/27 05:56:56;;;;;;;10.30;8.80;;;;;;;19.60;100.00;97364.24;109150;1254;58787;-80
2023/08/27 05:59:22;;;;;;;10.90;9.80;;;;;;;19.73;100.00;97367.56;109158;1254;58240;-80
2023/08/27 06:01:49;;;;;;;12.40;9.70;;;;;;;19.83;100.00;97375.42;109132;1254;58266;-80
2023/08/27 06:04:15;;;;;;;10.40;8.60;;;;;;;19.97;100.00;97379.14;109106;1254;58226;-80
2023/08/27 06:06:42;;;;;;;13.20;7.50;;;;;;;20.01;100.00;97376.55;109154;1254;58856;-80
2023/08/27 06:09:08;;;;;;;11.00;7.70;;;;;;;20.02;100.00;97375.73;109153;1254;58843;-80
2023/08/27 06:11:34;;;;;;;8.00;6.60;;;;;;;20.05;100.00;97374.92;109193;1254;59196;-80
2023/08/27 06:14:01;;;;;;;10.00;7.60;;;;;;;20.08;100.00;97376.02;109170;1254;58308;-80
2023/08/27 06:16:27;;;;;;;7.70;6.70;;;;;;;-128.00;-1.00;-1.00;105332;1254;1004843;-80
2023/08/27 06:18:54;;;;;;;7.80;6.70;;;;;;;-128.00;-1.00;-1.00;105369;1254;1004226;-80
2023/08/27 06:21:20;;;;;;;11.00;6.70;;;;;;;-128.00;-1.00;-1.00;105320;1255;1004052;-80
2023/08/27 06:23:47;;;;;;;6.70;6.00;;;;;;;-128.00;-1.00;-1.00;105270;1255;1004575;-80
2023/08/27 06:26:13;;;;;;;9.00;5.90;;;;;;;-128.00;-1.00;-1.00;105271;1255;1005257;-80
2023/08/27 06:28:40;;;;;;;6.30;5.40;;;;;;;-128.00;-1.00;-1.00;105242;1255;1004629;-80
2023/08/27 06:31:07;;;;;;;6.00;4.80;;;;;;;-128.00;-1.00;-1.00;105248;1255;1003776;-80
2023/08/27 06:33:33;;;;;;;5.20;4.70;;;;;;;-128.00;-1.00;-1.00;105289;1255;1004247;-80
2023/08/27 06:36:00;;;;;;;7.40;4.70;;;;;;;-128.00;-1.00;-1.00;105274;1255;1005100;-80
2023/08/27 06:38:26;;;;;;;6.90;5.10;;;;;;;-128.00;-1.00;-1.00;105180;1256;1003685;-80
2023/08/27 06:40:53;;;;;;;6.10;4.70;;;;;;;-128.00;-1.00;-1.00;105287;1255;1006038;-81
2023/08/27 06:43:19;;;;;;;5.00;4.30;;;;;;;-128.00;-1.00;-1.00;105180;1255;1004844;-81
2023/08/27 06:45:46;;;;;;;6.40;4.50;;;;;;;-128.00;-1.00;-1.00;105149;1256;1004310;-80
2023/08/27 06:48:12;;;;;;;8.10;4.10;;;;;;;-128.00;-1.00;-1.00;105304;1255;1004648;-80
2023/08/27 06:50:39;;;;;;;4.70;3.50;;;;;;;-128.00;-1.00;-1.00;105283;1256;1005025;-80
2023/08/27 06:53:06;;;;;;;5.30;4.00;;;;;;;-128.00;-1.00;-1.00;105324;1254;1003791;-80
2023/08/27 06:55:32;;;;;;;5.90;2.70;;;;;;;-128.00;-1.00;-1.00;105388;1254;1004653;-81
2023/08/27 06:57:59;;;;;;;4.40;2.70;;;;;;;-128.00;-1.00;-1.00;105380;1254;1004865;-80
2023/08/27 07:00:25;;;;;;;5.70;2.60;;;;;;;-128.00;-1.00;-1.00;105377;1254;1004299;-81
2023/08/27 07:02:53;;;;;;;6.30;3.60;;;;;;;-128.00;-1.00;-1.00;105379;1254;1004114;-80
2023/08/27 07:05:20;;;;;;;5.30;3.10;;;;;;;-128.00;-1.00;-1.00;105437;1254;1004199;-80
2023/08/27 07:07:47;;;;;;;4.80;2.50;;;;;;;-128.00;-1.00;-1.00;105363;1254;1004151;-80
2023/08/27 07:10:13;;;;;;;5.10;3.10;;;;;;;-128.00;-1.00;-1.00;105433;1254;1003874;-80
2023/08/27 07:12:40;;;;;;;4.60;2.60;;;;;;;-128.00;-1.00;-1.00;105410;1254;1004489;-80
2023/08/27 07:15:07;;;;;;;7.20;3.40;;;;;;;-128.00;-1.00;-1.00;105403;1254;1004234;-80
2023/08/27 07:17:34;;;;;;;4.70;2.70;;;;;;;-128.00;-1.00;-1.00;105394;1254;1004190;-80
2023/08/27 07:20:01;;;;;;;4.10;2.60;;;;;;;-128.00;-1.00;-1.00;105391;1254;1004191;-81
2023/08/27 07:22:29;;;;;;;3.00;2.50;;;;;;;-128.00;-1.00;-1.00;105398;1254;1047463;-81
2023/08/27 07:24:56;;;;;;;6.40;2.40;;;;;;;-128.00;-1.00;-1.00;105403;1254;1004714;-81
2023/08/27 07:27:22;;;;;;;3.70;2.50;;;;;;;-128.00;-1.00;-1.00;105377;1254;1004464;-80
2023/08/27 07:29:49;;;;;;;4.50;2.40;;;;;;;-128.00;-1.00;-1.00;105381;1254;1004807;-80
2023/08/27 07:32:16;;;;;;;6.10;2.30;;;;;;;-128.00;-1.00;-1.00;105362;1254;1004812;-80
2023/08/27 07:34:42;;;;;;;6.00;3.20;;;;;;;-128.00;-1.00;-1.00;105403;1254;1004688;-80
2023/08/27 07:37:09;;;;;;;4.70;2.90;;;;;;;-128.00;-1.00;-1.00;105225;1254;1004533;-80
2023/08/27 07:39:35;;;;;;;6.70;2.90;;;;;;;-128.00;-1.00;-1.00;105392;1254;1005077;-80
2023/08/27 07:42:02;;;;;;;4.80;2.70;;;;;;;-128.00;-1.00;-1.00;105348;1254;1004119;-80
2023/08/27 07:44:29;;;;;;;3.60;3.10;;;;;;;-128.00;-1.00;-1.00;105388;1254;1004183;-80
2023/08/27 07:46:55;;;;;;;5.10;3.30;;;;;;;-128.00;-1.00;-1.00;105395;1254;1003758;-80
2023/08/27 07:49:22;;;;;;;6.70;3.60;;;;;;;-128.00;-1.00;-1.00;105385;1254;1004617;-80
2023/08/27 07:51:48;;;;;;;5.60;3.40;;;;;;;-128.00;-1.00;-1.00;105417;1256;1005036;-80
2023/08/27 07:54:15;;;;;;;4.70;3.10;;;;;;;-128.00;-1.00;-1.00;105264;1256;1005105;-80
2023/08/27 07:56:41;;;;;;;4.90;3.60;;;;;;;-128.00;-1.00;-1.00;105248;1259;1004420;-80
2023/08/27 07:59:09;;;;;;;6.40;3.90;;;;;;;-128.00;-1.00;-1.00;105227;1255;1003765;-80
2023/08/27 08:01:35;;;;;;;6.40;3.50;;;;;;;-128.00;-1.00;-1.00;105179;1255;1003849;-80
2023/08/27 08:04:03;;;;;;;8.50;4.50;;;;;;;-128.00;-1.00;-1.00;105269;1256;1003822;-80
2023/08/27 08:06:29;;;;;;;3.90;3.40;;;;;;;-128.00;-1.00;-1.00;105246;1255;1004266;-80
2023/08/27 08:08:56;;;;;;;4.90;3.90;;;;;;;-128.00;-1.00;-1.00;105248;1256;1004303;-80
2023/08/27 08:11:23;;;;;;;8.80;4.00;;;;;;;-128.00;-1.00;-1.00;105260;1255;1006520;-80
2023/08/27 08:13:49;;;;;;;6.40;3.90;;;;;;;-128.00;-1.00;-1.00;105194;1256;1005129;-80
2023/08/27 08:16:16;;;;;;;5.40;3.80;;;;;;;-128.00;-1.00;-1.00;105241;1256;1004660;-80
2023/08/27 08:18:42;;;;;;;3.90;2.90;;;;;;;-128.00;-1.00;-1.00;105200;1256;1004060;-80
2023/08/27 08:21:09;;;;;;;3.60;3.20;;;;;;;-128.00;-1.00;-1.00;105140;1256;1004054;-80
2023/08/27 08:23:36;;;;;;;5.90;3.70;;;;;;;-128.00;-1.00;-1.00;105235;1255;1005029;-81
2023/08/27 08:26:04;;;;;;;5.00;3.90;;;;;;;-128.00;-1.00;-1.00;105214;1255;1003892;-80
2023/08/27 08:28:31;;;;;;;5.10;3.70;;;;;;;-128.00;-1.00;-1.00;105216;1255;1003969;-80
2023/08/27 08:30:57;;;;;;;5.60;4.00;;;;;;;-128.00;-1.00;-1.00;105201;1257;1004654;-80
2023/08/27 08:33:24;;;;;;;4.50;3.60;;;;;;;-128.00;-1.00;-1.00;105223;1256;1005303;-80
2023/08/27 08:35:50;;;;;;;7.40;3.70;;;;;;;-128.00;-1.00;-1.00;105180;1256;1004010;-80
2023/08/27 08:38:17;;;;;;;5.80;3.60;;;;;;;-128.00;-1.00;-1.00;105258;1256;1004828;-80
2023/08/27 08:40:45;;;;;;;5.40;3.40;;;;;;;-128.00;-1.00;-1.00;105217;1256;1004611;-80
2023/08/27 08:43:20;;;;;;;4.60;4.00;;;;;;;-128.00;-1.00;-1.00;105183;1256;1004149;-80
2023/08/27 08:45:53;;;;;;;4.00;3.50;;;;;;;-128.00;-1.00;-1.00;105176;1256;1046254;-80
2023/08/27 08:48:22;;;;;;;5.50;3.70;;;;;;;-128.00;-1.00;-1.00;105265;1256;1047463;-80
2023/08/27 08:50:48;;;;;;;4.70;3.80;;;;;;;-128.00;-1.00;-1.00;105089;1256;1061699;-80
2023/08/27 08:53:15;;;;;;;5.90;4.20;;;;;;;-128.00;-1.00;-1.00;105345;1254;1004613;-80
2023/08/27 08:55:47;;;;;;;6.00;4.00;;;;;;;-128.00;-1.00;-1.00;105399;1254;1004737;-80
2023/08/27 08:58:16;;;;;;;5.60;3.80;;;;;;;-128.00;-1.00;-1.00;105402;1254;1047513;-80
2023/08/27 09:00:42;;;;;;;6.30;3.80;;;;;;;-128.00;-1.00;-1.00;105556;1257;1046806;-80
2023/08/27 09:03:09;;;;;;;5.60;4.40;;;;;;;-128.00;-1.00;-1.00;105446;1254;1004214;-80
2023/08/27 09:05:36;;;;;;;4.60;4.10;;;;;;;-128.00;-1.00;-1.00;105389;1254;1004317;-80
2023/08/27 09:08:03;;;;;;;6.20;4.40;;;;;;;-128.00;-1.00;-1.00;105386;1254;1004321;-80
2023/08/27 09:10:30;;;;;;;6.10;4.00;;;;;;;-128.00;-1.00;-1.00;105500;1254;1005121;-80
2023/08/27 09:12:57;;;;;;;5.50;4.60;;;;;;;-128.00;-1.00;-1.00;105421;1254;1004699;-80
2023/08/27 09:15:23;;;;;;;7.70;6.60;;;;;;;-128.00;-1.00;-1.00;105391;1254;1004302;-80
2023/08/27 09:17:50;;;;;;;5.80;4.70;;;;;;;-128.00;-1.00;-1.00;105363;1254;1004881;-80
2023/08/27 09:20:17;;;;;;;4.90;3.60;;;;;;;-128.00;-1.00;-1.00;105392;1254;1003215;-80
2023/08/27 09:22:43;;;;;;;4.50;4.10;;;;;;;-128.00;-1.00;-1.00;105352;1254;1004471;-80
2023/08/27 09:25:10;;;;;;;4.80;4.10;;;;;;;-128.00;-1.00;-1.00;105405;1254;1004987;-80
2023/08/27 09:27:37;;;;;;;7.00;4.40;;;;;;;-128.00;-1.00;-1.00;105389;1254;1004627;-80
2023/08/27 09:30:03;;;;;;;10.00;7.10;;;;;;;-128.00;-1.00;-1.00;105393;1254;1004937;-81
2023/08/27 09:32:30;;;;;;;12.10;9.90;;;;;;;-128.00;-1.00;-1.00;105392;1254;1004407;-80
2023/08/27 09:35:01;;;;;;;6.50;4.80;;;;;;;-128.00;-1.00;-1.00;105402;1254;1005181;-80
2023/08/27 09:37:27;;;;;;;6.60;4.60;;;;;;;-128.00;-1.00;-1.00;105459;1254;1047613;-81
2023/08/27 09:39:55;;;;;;;4.80;4.30;;;;;;;-128.00;-1.00;-1.00;105447;1254;1004005;-81
2023/08/27 09:42:21;;;;;;;7.40;6.70;;;;;;;-128.00;-1.00;-1.00;105491;1254;1003364;-81
2023/08/27 09:44:50;;;;;;;16.40;10.90;;;;;;;-128.00;-1.00;-1.00;105392;1254;1003940;-81
2023/08/27 09:47:16;;;;;;;;;;;;;;;-128.00;-1.00;-1.00;105596;1254;1004043;-81
2023/08/27 09:49:43;;;;;;;5.00;4.50;;;;;;;-128.00;-1.00;-1.00;105597;1254;1004813;-81
2023/08/27 09:52:09;;;;;;;5.30;4.00;;;;;;;-128.00;-1.00;-1.00;105547;1256;1003305;-81
2023/08/27 09:54:37;;;;;;;4.60;3.60;;;;;;;-128.00;-1.00;-1.00;105472;1256;1005057;-81
2023/08/27 09:57:04;;;;;;;4.20;3.80;;;;;;;-128.00;-1.00;-1.00;105400;1256;1005095;-80
2023/08/27 09:59:30;;;;;;;4.60;4.10;;;;;;;-128.00;-1.00;-1.00;105408;1255;1004248;-80
2023/08/27 10:01:57;;;;;;;5.80;4.20;;;;;;;-128.00;-1.00;-1.00;105392;1256;1004236;-80
2023/08/27 10:04:24;;;;;;;7.00;4.50;;;;;;;-128.00;-1.00;-1.00;105352;1255;1004590;-80
2023/08/27 10:06:51;;;;;;;7.00;4.60;;;;;;;-128.00;-1.00;-1.00;105264;1255;1004078;-80
2023/08/27 10:09:17;;;;;;;8.00;5.30;;;;;;;-128.00;-1.00;-1.00;105235;1255;1004287;-80
2023/08/27 10:11:45;;;;;;;5.80;4.70;;;;;;;-128.00;-1.00;-1.00;105245;1255;1004159;-80
2023/08/27 10:14:12;;;;;;;6.80;4.20;;;;;;;-128.00;-1.00;-1.00;105251;1255;1004363;-80
2023/08/27 10:16:39;;;;;;;5.20;4.70;;;;;;;-128.00;-1.00;-1.00;105223;1256;1005089;-81
2023/08/27 10:19:06;;;;;;;7.10;4.60;;;;;;;-128.00;-1.00;-1.00;105323;1256;1005556;-81
2023/08/27 10:21:35;;;;;;;6.50;4.90;;;;;;;-128.00;-1.00;-1.00;105191;1256;1004803;-81
2023/08/27 10:24:02;;;;;;;5.60;5.00;;;;;;;-128.00;-1.00;-1.00;105122;1256;1046146;-80
2023/08/27 10:26:29;;;;;;;7.40;5.20;;;;;;;-128.00;-1.00;-1.00;105182;1256;1004377;-80
2023/08/27 10:28:56;;;;;;;6.10;5.50;;;;;;;-128.00;-1.00;-1.00;105276;1255;1004234;-80
2023/08/27 10:31:22;;;;;;;6.60;5.90;;;;;;;-128.00;-1.00;-1.00;105092;1261;1004563;-80
2023/08/27 10:33:49;;;;;;;6.90;5.00;;;;;;;-128.00;-1.00;-1.00;105240;1255;1004682;-80
2023/08/27 10:36:21;;;;;;;7.50;5.60;;;;;;;-128.00;-1.00;-1.00;105140;1255;1004966;-80
2023/08/27 10:38:47;;;;;;;7.60;5.50;;;;;;;-128.00;-1.00;-1.00;105264;1255;1047774;-80
2023/08/27 10:41:20;;;;;;;6.10;5.40;;;;;;;-128.00;-1.00;-1.00;105215;1256;1004527;-80
2023/08/27 10:43:46;;;;;;;6.70;5.80;;;;;;;-128.00;-1.00;-1.00;105226;1256;1058112;-80
2023/08/27 10:46:17;;;;;;;6.10;4.80;;;;;;;-128.00;-1.00;-1.00;105218;1255;1004178;-80
2023/08/27 10:48:51;;;;;;;6.50;5.70;;;;;;;-128.00;-1.00;-1.00;105244;1256;1046302;-80
2023/08/27 10:51:20;;;;;;;6.80;5.50;;;;;;;-128.00;-1.00;-1.00;105262;1255;1047489;-80
2023/08/27 10:53:49;;;;;;;6.10;5.50;;;;;;;-128.00;-1.00;-1.00;105395;1254;1060651;-80
2023/08/27 10:56:31;;;;;;;6.30;5.70;;;;;;;-128.00;-1.00;-1.00;105415;1254;1058243;-80
2023/08/27 10:58:59;;;;;;;6.90;5.70;;;;;;;-128.00;-1.00;-1.00;105399;1254;1059054;-81
2023/08/27 11:01:25;;;;;;;6.70;5.80;;;;;;;-128.00;-1.00;-1.00;105365;1254;1004832;-81
2023/08/27 11:03:57;;;;;;;8.10;6.30;;;;;;;-128.00;-1.00;-1.00;105283;1254;1004197;-80
2023/08/27 11:06:56;;;;;;;7.50;5.80;;;;;;;-128.00;-1.00;-1.00;105529;1254;1060077;-81
2023/08/27 11:09:29;;;;;;;6.80;5.90;;;;;;;-128.00;-1.00;-1.00;105098;1254;1057604;-80
2023/08/27 11:12:03;;;;;;;8.40;6.50;;;;;;;-128.00;-1.00;-1.00;105373;1254;1059756;-81
2023/08/27 11:14:35;;;;;;;6.30;5.20;;;;;;;-128.00;-1.00;-1.00;105342;1254;1046959;-81
2023/08/27 11:17:03;;;;;;;6.20;5.60;;;;;;;-128.00;-1.00;-1.00;105371;1254;1047311;-81
2023/08/27 11:19:37;;;;;;;6.70;5.90;;;;;;;-128.00;-1.00;-1.00;105386;1254;1003813;-80
2023/08/27 11:22:12;;;;;;;7.90;5.60;;;;;;;-128.00;-1.00;-1.00;105437;1254;1057211;-81